createdAt,value
2022-09-17T12:57:28.797Z,14.00
2022-09-17T12:58:52.389Z,13.80
2022-09-17T13:00:03.968Z,13.80
2022-09-17T13:01:20.778Z,13.80
2022-09-17T13:02:33.402Z,13.80
2022-09-17T13:03:37.468Z,13.80
2022-09-17T13:05:00.410Z,13.80
2022-09-17T13:06:29.138Z,13.80
2022-09-17T13:07:30.836Z,13.90
2022-09-17T13:08:53.378Z,14.00
2022-09-17T13:10:07.906Z,14.10
2022-09-17T13:11:49.148Z,14.10
2022-09-17T13:13:20.350Z,14.10
2022-09-17T13:14:43.778Z,14.20
2022-09-17T13:16:05.037Z,14.20
2022-09-17T13:17:25.226Z,14.20
2022-09-17T13:20:31.599Z,14.10
2022-09-17T13:22:07.224Z,14.10
2022-09-17T13:23:10.361Z,14.10
2022-09-17T13:24:25.166Z,14.10
2022-09-17T13:25:27.264Z,14.20
2022-09-17T13:26:37.687Z,14.20
2022-09-17T13:27:40.405Z,14.20
2022-09-17T13:28:47.764Z,14.20
2022-09-17T13:29:55.615Z,14.30
2022-09-17T13:31:00.063Z,14.40
2022-09-17T13:32:01.884Z,14.50
2022-09-17T13:33:04.258Z,14.50
2022-09-17T13:34:32.511Z,14.60
2022-09-17T13:35:34.141Z,14.70
2022-09-17T13:36:38.353Z,14.70
2022-09-17T13:37:42.879Z,14.70
2022-09-17T13:38:44.566Z,14.70
2022-09-17T13:39:47.334Z,14.80
2022-09-17T13:40:49.347Z,14.70
2022-09-17T13:42:06.338Z,14.70
2022-09-17T13:43:16.012Z,14.80
2022-09-17T13:44:23.012Z,14.70
2022-09-17T13:45:26.523Z,14.80
2022-09-17T13:46:29.365Z,14.90
2022-09-17T13:47:33.439Z,14.90
2022-09-17T13:48:36.938Z,14.90
2022-09-17T13:49:49.730Z,15.00
2022-09-17T13:50:51.581Z,15.00
2022-09-17T13:51:54.199Z,15.10
2022-09-17T13:52:57.988Z,15.20
2022-09-17T13:54:08.403Z,15.20
2022-09-17T13:55:33.133Z,15.20
2022-09-17T13:56:43.002Z,15.20
2022-09-17T13:57:51.273Z,15.30
2022-09-17T13:58:54.109Z,15.30
2022-09-17T13:59:59.071Z,15.40
2022-09-17T14:01:02.372Z,15.40
2022-09-17T14:02:16.356Z,15.50
2022-09-17T14:03:52.421Z,15.70
2022-09-17T14:04:56.267Z,15.70
2022-09-17T14:05:58.798Z,15.70
2022-09-17T14:07:00.615Z,15.80
2022-09-17T14:08:13.995Z,15.80
2022-09-17T14:09:44.341Z,15.90
2022-09-17T14:10:47.438Z,15.90
2022-09-17T14:11:49.099Z,15.90
2022-09-17T14:12:56.224Z,15.90
2022-09-17T14:14:08.218Z,15.90
2022-09-17T14:15:41.779Z,15.90
2022-09-17T14:16:48.571Z,16.00
2022-09-17T14:17:54.091Z,16.20
2022-09-17T14:19:17.398Z,16.30
2022-09-17T14:20:21.591Z,16.40
2022-09-17T14:21:35.072Z,16.70
2022-09-17T14:22:36.873Z,16.90
2022-09-17T14:23:49.770Z,17.30
2022-09-17T14:24:53.266Z,17.60
2022-09-17T14:25:55.841Z,17.60
2022-09-17T14:27:06.427Z,17.60
2022-09-17T14:28:27.085Z,17.50
2022-09-17T14:29:47.056Z,17.40
2022-09-17T14:30:48.748Z,17.30
2022-09-17T14:31:50.440Z,17.30
2022-09-17T14:33:01.230Z,17.20
2022-09-17T14:34:06.506Z,17.30
2022-09-17T14:35:39.551Z,17.30
2022-09-17T14:36:43.122Z,17.30
2022-09-17T14:37:46.983Z,17.30
2022-09-17T14:38:53.400Z,17.30
2022-09-17T14:39:55.289Z,17.40
2022-09-17T14:41:12.298Z,17.50
2022-09-17T14:42:23.399Z,17.50
2022-09-17T14:43:38.023Z,17.50
2022-09-17T14:45:00.801Z,17.50
2022-09-17T14:46:05.792Z,17.40
2022-09-17T14:47:13.172Z,17.40
2022-09-17T14:48:34.863Z,17.50
2022-09-17T14:49:38.534Z,17.50
2022-09-17T14:50:40.325Z,17.40
2022-09-17T14:51:42.586Z,17.40
2022-09-17T14:52:49.796Z,17.40
2022-09-17T14:54:06.844Z,17.40
2022-09-17T14:55:21.677Z,17.40
2022-09-17T14:56:24.802Z,17.40
2022-09-17T14:57:28.783Z,17.40
2022-09-17T14:58:37.602Z,17.40
2022-09-17T14:59:54.732Z,17.30
2022-09-17T15:00:56.485Z,17.30
2022-09-17T15:01:58.290Z,17.30
2022-09-17T15:03:00.234Z,17.40
2022-09-17T15:04:22.235Z,17.40
2022-09-17T15:05:31.714Z,17.40
2022-09-17T15:06:33.576Z,17.30
2022-09-17T15:07:35.199Z,17.30
2022-09-17T15:08:37.288Z,17.30
2022-09-17T15:09:38.940Z,17.20
2022-09-17T15:10:52.379Z,17.20
2022-09-17T15:11:58.190Z,17.20
2022-09-17T15:13:04.590Z,17.20
2022-09-17T15:14:17.962Z,17.20
2022-09-17T15:15:23.266Z,17.20
2022-09-17T15:16:30.624Z,17.10
2022-09-17T15:17:33.681Z,17.00
2022-09-17T15:18:40.037Z,16.90
2022-09-17T15:19:45.397Z,16.70
2022-09-17T15:20:48.088Z,16.70
2022-09-17T15:21:53.410Z,16.60
2022-09-17T15:23:15.656Z,16.50
2022-09-17T15:24:26.577Z,16.50
2022-09-17T15:25:30.643Z,16.50
2022-09-17T15:26:37.950Z,16.40
2022-09-17T15:27:42.775Z,16.30
2022-09-17T15:28:45.756Z,16.20
2022-09-17T15:29:51.742Z,16.10
2022-09-17T15:30:53.402Z,16.10
2022-09-17T15:31:55.374Z,16.00
2022-09-17T15:32:59.171Z,16.00
2022-09-17T15:34:01.239Z,16.00
2022-09-17T15:35:15.098Z,15.90
2022-09-17T15:36:20.268Z,15.90
2022-09-17T15:37:28.223Z,15.70
2022-09-17T15:38:33.368Z,15.70
2022-09-17T15:39:46.707Z,15.60
2022-09-17T15:40:48.695Z,15.60
2022-09-17T15:41:57.695Z,15.60
2022-09-17T15:43:33.698Z,15.70
2022-09-17T15:44:35.531Z,15.70
2022-09-17T15:45:39.075Z,15.80
2022-09-17T15:46:41.604Z,15.70
2022-09-17T15:48:01.127Z,15.70
2022-09-17T15:49:04.446Z,15.60
2022-09-17T15:50:23.112Z,15.70
2022-09-17T15:51:34.761Z,15.70
2022-09-17T15:52:36.528Z,15.60
2022-09-17T15:53:38.233Z,15.60
2022-09-17T15:54:40.007Z,15.50
2022-09-17T15:55:46.728Z,15.50
2022-09-17T15:56:56.782Z,15.50
2022-09-17T15:58:04.314Z,15.60
2022-09-17T15:59:26.530Z,15.70
2022-09-17T16:00:28.532Z,15.70
2022-09-17T16:01:30.175Z,15.80
2022-09-17T16:02:33.308Z,15.80
2022-09-17T16:03:41.789Z,15.90
2022-09-17T16:04:43.711Z,15.80
2022-09-17T16:05:47.219Z,15.80
2022-09-17T16:06:53.880Z,15.80
2022-09-17T16:07:55.541Z,15.80
2022-09-17T16:09:01.150Z,15.70
2022-09-17T16:10:02.893Z,15.60
2022-09-17T16:11:04.581Z,15.60
2022-09-17T16:12:06.396Z,15.70
2022-09-17T16:13:08.020Z,15.70
2022-09-17T16:14:09.611Z,15.70
2022-09-17T16:15:13.398Z,15.70
2022-09-17T16:16:17.727Z,15.80
2022-09-17T16:17:37.374Z,15.80
2022-09-17T16:18:40.008Z,15.90
2022-09-17T16:19:41.941Z,15.90
2022-09-17T16:20:43.796Z,15.80
2022-09-17T16:21:45.406Z,15.90
2022-09-17T16:22:50.270Z,15.90
2022-09-17T16:23:54.381Z,15.90
2022-09-17T16:24:56.079Z,16.20
2022-09-17T16:25:58.108Z,16.50
2022-09-17T16:26:59.782Z,16.80
2022-09-17T16:28:06.297Z,17.20
2022-09-17T16:29:14.150Z,17.70
2022-09-17T16:30:18.693Z,18.30
2022-09-17T16:31:20.875Z,18.90
2022-09-17T16:32:22.538Z,19.50
2022-09-17T16:33:24.546Z,20.00
2022-09-17T16:34:26.162Z,20.50
2022-09-17T16:35:27.791Z,21.00
2022-09-17T16:36:31.916Z,21.30
2022-09-17T16:37:33.533Z,21.50
2022-09-17T16:38:36.046Z,21.80
2022-09-17T16:39:37.677Z,22.00
2022-09-17T16:40:44.977Z,21.80
2022-09-17T16:41:46.574Z,21.50
2022-09-17T16:42:48.431Z,21.00
2022-09-17T16:43:50.101Z,20.30
2022-09-17T16:44:51.816Z,19.90
2022-09-17T16:46:04.541Z,19.50
2022-09-17T16:47:06.350Z,19.30
2022-09-17T16:48:08.744Z,18.90
2022-09-17T16:49:10.456Z,18.50
2022-09-17T16:50:15.617Z,18.30
2022-09-17T16:51:17.589Z,18.10
2022-09-17T16:52:19.212Z,17.90
2022-09-17T16:53:20.944Z,17.80
2022-09-17T16:54:22.694Z,17.60
2022-09-17T16:55:24.310Z,17.30
2022-09-17T16:56:25.976Z,17.20
2022-09-17T16:57:27.995Z,17.10
2022-09-17T16:58:29.665Z,17.00
2022-09-17T16:59:31.488Z,16.90
2022-09-17T17:00:33.145Z,16.90
2022-09-17T17:01:34.863Z,16.80
2022-09-17T17:02:36.552Z,16.70
2022-09-17T17:03:38.822Z,16.60
2022-09-17T17:04:40.474Z,16.50
2022-09-17T17:05:43.393Z,16.50
2022-09-17T17:06:45.060Z,16.40
2022-09-17T17:07:47.298Z,16.40
2022-09-17T17:08:49.189Z,16.30
2022-09-17T17:09:50.822Z,16.30
2022-09-17T17:10:52.432Z,16.30
2022-09-17T17:11:54.199Z,16.20
2022-09-17T17:12:56.806Z,16.20
2022-09-17T17:13:58.817Z,16.10
2022-09-17T17:15:01.102Z,16.10
2022-09-17T17:16:11.090Z,16.00
2022-09-17T17:17:12.794Z,15.90
2022-09-17T17:18:14.413Z,15.70
2022-09-17T17:19:16.124Z,15.40
2022-09-17T17:20:17.859Z,15.30
2022-09-17T17:21:20.743Z,15.10
2022-09-17T17:22:22.387Z,15.00
2022-09-17T17:23:24.053Z,14.80
2022-09-17T17:24:25.924Z,14.70
2022-09-17T17:25:28.569Z,14.60
2022-09-17T17:26:30.347Z,14.50
2022-09-17T17:27:32.478Z,14.50
2022-09-17T17:28:36.388Z,14.50
2022-09-17T17:29:38.320Z,14.50
2022-09-17T17:30:39.921Z,14.50
2022-09-17T17:31:41.680Z,14.50
2022-09-17T17:32:44.085Z,14.50
2022-09-17T17:33:45.910Z,14.50
2022-09-17T17:34:48.418Z,14.50
2022-09-17T17:35:50.029Z,14.50
2022-09-17T17:36:51.797Z,14.40
2022-09-17T17:37:53.411Z,14.40
2022-09-17T17:39:01.643Z,14.40
2022-09-17T17:40:09.847Z,14.50
2022-09-17T17:41:13.594Z,14.20
2022-09-17T17:42:15.390Z,14.40
2022-09-17T17:43:16.981Z,14.40
2022-09-17T17:44:18.591Z,14.40
2022-09-17T17:45:20.359Z,14.30
2022-09-17T17:46:23.230Z,14.30
2022-09-17T17:47:24.963Z,14.20
2022-09-17T17:48:28.293Z,14.10
2022-09-17T17:49:29.937Z,14.10
2022-09-17T17:50:32.806Z,14.10
2022-09-17T17:51:35.214Z,14.00
2022-09-17T17:52:39.032Z,14.00
2022-09-17T17:53:43.378Z,14.00
2022-09-17T17:54:44.969Z,14.00
2022-09-17T17:55:56.923Z,13.90
2022-09-17T17:56:58.623Z,13.90
2022-09-17T17:58:01.672Z,13.90
2022-09-17T17:59:03.512Z,13.90
2022-09-17T18:00:05.809Z,13.90
2022-09-17T18:01:25.965Z,13.80
2022-09-17T18:02:27.767Z,13.80
2022-09-17T18:03:29.511Z,13.80
2022-09-17T18:04:31.117Z,13.80
2022-09-17T18:05:32.722Z,13.80
2022-09-17T18:06:34.708Z,13.80
2022-09-17T18:07:36.407Z,13.70
2022-09-17T18:08:39.836Z,13.80
2022-09-17T18:09:41.507Z,13.80
2022-09-17T18:10:50.577Z,13.80
2022-09-17T18:11:52.209Z,13.70
2022-09-17T18:12:53.984Z,13.70
2022-09-17T18:13:57.634Z,13.70
2022-09-17T18:14:59.267Z,13.70
2022-09-17T18:16:02.351Z,13.70
2022-09-17T18:17:04.140Z,13.70
2022-09-17T18:18:06.560Z,13.70
2022-09-17T18:19:10.477Z,13.80
2022-09-17T18:20:12.090Z,13.70
2022-09-17T18:21:20.087Z,13.70
2022-09-17T18:22:21.944Z,13.80
2022-09-17T18:23:23.731Z,13.80
2022-09-17T18:24:25.443Z,13.80
2022-09-17T18:25:28.595Z,13.80
2022-09-17T18:26:31.512Z,13.80
2022-09-17T18:27:33.261Z,13.80
2022-09-17T18:28:36.531Z,13.80
2022-09-17T18:29:39.168Z,13.80
2022-09-17T18:30:41.257Z,13.80
2022-09-17T18:31:44.570Z,13.80
2022-09-17T18:32:49.085Z,13.80
2022-09-17T18:34:02.751Z,13.80
2022-09-17T18:35:04.612Z,13.70
2022-09-17T18:36:06.703Z,13.70
2022-09-17T18:37:08.358Z,13.90
2022-09-17T18:38:09.991Z,13.70
2022-09-17T18:39:56.445Z,13.70
2022-09-17T18:40:36.558Z,13.70
2022-09-17T18:41:40.260Z,13.70
2022-09-17T18:42:41.947Z,13.70
2022-09-17T18:43:43.601Z,13.70
2022-09-17T18:44:45.235Z,13.70
2022-09-17T18:45:55.400Z,13.70
2022-09-17T18:46:57.078Z,13.70
2022-09-17T18:47:58.828Z,13.80
2022-09-17T18:49:01.021Z,13.80
2022-09-17T18:50:02.847Z,13.80
2022-09-17T18:51:07.847Z,13.80
2022-09-17T18:52:10.656Z,13.80
2022-09-17T18:53:12.250Z,13.80
2022-09-17T18:54:14.164Z,13.80
2022-09-17T18:55:15.929Z,13.80
2022-09-17T18:56:28.539Z,13.80
2022-09-17T18:57:30.213Z,13.80
2022-09-17T18:58:31.870Z,13.80
2022-09-17T18:59:33.542Z,13.90
2022-09-17T19:00:35.191Z,13.90
2022-09-17T19:01:37.394Z,13.90
2022-09-17T19:02:39.187Z,13.80
2022-09-17T19:03:40.805Z,13.80
2022-09-17T19:04:42.401Z,13.70
2022-09-17T19:05:44.043Z,13.70
2022-09-17T19:06:45.708Z,13.70
2022-09-17T19:07:48.094Z,13.70
2022-09-17T19:08:53.717Z,13.60
2022-09-17T19:09:55.642Z,13.60
2022-09-17T19:10:58.669Z,13.60
2022-09-17T19:12:00.455Z,13.50
2022-09-17T19:13:03.459Z,13.50
2022-09-17T19:14:05.279Z,13.40
2022-09-17T19:15:08.889Z,13.40
2022-09-17T19:16:12.375Z,13.40
2022-09-17T19:17:14.118Z,13.40
2022-09-17T19:18:16.021Z,13.30
2022-09-17T19:19:17.642Z,13.30
2022-09-17T19:20:19.688Z,13.20
2022-09-17T19:21:21.817Z,13.10
2022-09-17T19:22:24.026Z,13.10
2022-09-17T19:23:25.614Z,13.00
2022-09-17T19:24:27.267Z,13.10
2022-09-17T19:25:29.166Z,13.00
2022-09-17T19:26:30.760Z,13.00
2022-09-17T19:27:32.415Z,13.00
2022-09-17T19:28:42.877Z,13.00
2022-09-17T19:29:44.545Z,12.90
2022-09-17T19:30:46.428Z,12.90
2022-09-17T19:31:49.422Z,13.00
2022-09-17T19:32:51.097Z,13.00
2022-09-17T19:33:52.889Z,12.90
2022-09-17T19:34:54.893Z,12.80
2022-09-17T19:36:06.099Z,12.70
2022-09-17T19:37:08.428Z,12.60
2022-09-17T19:38:13.200Z,12.70
2022-09-17T19:39:15.200Z,12.70
2022-09-17T19:40:17.051Z,12.70
2022-09-17T19:41:24.161Z,12.70
2022-09-17T19:42:26.278Z,12.70
2022-09-17T19:43:29.565Z,12.70
2022-09-17T19:44:31.199Z,12.70
2022-09-17T19:45:32.796Z,12.60
2022-09-17T19:46:35.726Z,12.60
2022-09-17T19:47:38.845Z,12.60
2022-09-17T19:48:48.410Z,12.60
2022-09-17T19:49:52.465Z,12.60
2022-09-17T19:50:54.333Z,12.60
2022-09-17T19:51:56.093Z,12.60
2022-09-17T19:52:57.718Z,12.60
2022-09-17T19:53:59.416Z,12.60
2022-09-17T19:55:01.174Z,12.60
2022-09-17T19:56:02.942Z,12.60
2022-09-17T19:57:04.599Z,12.60
2022-09-17T19:58:06.323Z,12.60
2022-09-17T19:59:08.074Z,12.70
2022-09-17T20:00:12.105Z,12.60
2022-09-17T20:01:14.146Z,12.70
2022-09-17T20:02:16.094Z,12.70
2022-09-17T20:03:17.762Z,12.70
2022-09-17T20:04:19.477Z,12.70
2022-09-17T20:05:21.085Z,12.70
2022-09-17T20:06:24.136Z,12.70
2022-09-17T20:07:28.773Z,12.70
2022-09-17T20:08:31.894Z,12.70
2022-09-17T20:09:33.538Z,12.70
2022-09-17T20:10:37.236Z,12.70
2022-09-17T20:11:40.609Z,12.80
2022-09-17T20:12:42.392Z,12.80
2022-09-17T20:13:44.452Z,12.80
2022-09-17T20:14:46.092Z,12.90
2022-09-17T20:15:48.031Z,12.90
2022-09-17T20:16:49.650Z,12.90
2022-09-17T20:17:51.384Z,12.90
2022-09-17T20:18:53.563Z,12.90
2022-09-17T20:19:55.840Z,12.80
2022-09-17T20:20:57.531Z,12.90
2022-09-17T20:21:59.148Z,12.90
2022-09-17T20:23:00.794Z,12.90
2022-09-17T20:24:02.557Z,12.90
2022-09-17T20:25:04.926Z,12.90
2022-09-17T20:26:07.110Z,12.90
2022-09-17T20:27:08.723Z,12.90
2022-09-17T20:28:11.613Z,12.90
2022-09-17T20:29:13.350Z,12.90
2022-09-17T20:30:15.073Z,12.90
2022-09-17T20:31:26.824Z,12.90
2022-09-17T20:32:32.098Z,12.90
2022-09-17T20:33:33.876Z,12.90
2022-09-17T20:34:37.163Z,12.90
2022-09-17T20:35:38.870Z,12.90
2022-09-17T20:36:40.521Z,12.90
2022-09-17T20:38:39.272Z,12.90
2022-09-17T20:39:12.372Z,12.90
2022-09-17T20:40:16.292Z,12.80
2022-09-17T20:41:18.548Z,12.80
2022-09-17T20:42:20.409Z,12.80
2022-09-17T20:43:22.078Z,12.80
2022-09-17T20:44:25.287Z,12.80
2022-09-17T20:45:26.946Z,12.70
2022-09-17T20:46:29.779Z,12.70
2022-09-17T20:47:31.582Z,12.70
2022-09-17T20:48:34.720Z,12.70
2022-09-17T20:49:36.473Z,12.80
2022-09-17T20:50:38.085Z,12.70
2022-09-17T20:51:39.858Z,12.70
2022-09-17T20:52:41.522Z,12.80
2022-09-17T20:53:43.992Z,12.80
2022-09-17T20:54:45.679Z,12.80
2022-09-17T20:55:58.776Z,12.90
2022-09-17T20:57:00.432Z,12.90
2022-09-17T20:58:02.940Z,12.90
2022-09-17T20:59:17.273Z,12.90
2022-09-17T21:00:21.211Z,13.00
2022-09-17T21:01:26.186Z,13.00
2022-09-17T21:02:29.643Z,13.10
2022-09-17T21:03:31.268Z,13.10
2022-09-17T21:04:32.935Z,13.10
2022-09-17T21:05:38.211Z,13.10
2022-09-17T21:06:42.574Z,13.10
2022-09-17T21:07:44.676Z,13.10
2022-09-17T21:08:46.835Z,13.10
2022-09-17T21:09:48.442Z,13.10
2022-09-17T21:10:50.038Z,13.10
2022-09-17T21:11:51.996Z,13.10
2022-09-17T21:12:53.649Z,13.10
2022-09-17T21:13:55.608Z,13.20
2022-09-17T21:14:57.211Z,13.20
2022-09-17T21:16:00.304Z,13.20
2022-09-17T21:17:02.584Z,13.10
2022-09-17T21:18:05.939Z,13.10
2022-09-17T21:19:10.243Z,13.20
2022-09-17T21:20:11.893Z,13.20
2022-09-17T21:21:16.202Z,13.20
2022-09-17T21:22:18.547Z,13.20
2022-09-17T21:23:28.673Z,13.20
2022-09-17T21:24:30.320Z,13.20
2022-09-17T21:25:31.968Z,13.20
2022-09-17T21:26:35.759Z,13.20
2022-09-17T21:27:37.374Z,13.10
2022-09-17T21:28:40.869Z,13.20
2022-09-17T21:29:42.848Z,13.10
2022-09-17T21:30:46.745Z,13.10
2022-09-17T21:31:48.462Z,13.10
2022-09-17T21:32:53.699Z,13.10
2022-09-17T21:33:57.320Z,13.00
2022-09-17T21:34:58.968Z,13.00
2022-09-17T21:36:09.216Z,13.00
2022-09-17T21:37:10.889Z,13.00
2022-09-17T21:38:12.549Z,13.10
2022-09-17T21:39:16.244Z,13.00
2022-09-17T21:40:18.983Z,13.00
2022-09-17T21:41:21.249Z,13.00
2022-09-17T21:42:23.028Z,13.00
2022-09-17T21:43:25.617Z,13.00
2022-09-17T21:44:27.262Z,13.00
2022-09-17T21:45:28.869Z,13.00
2022-09-17T21:46:35.831Z,13.00
2022-09-17T21:47:37.583Z,13.00
2022-09-17T21:48:45.255Z,13.00
2022-09-17T21:49:46.905Z,13.00
2022-09-17T21:50:48.560Z,13.00
2022-09-17T21:51:50.216Z,13.00
2022-09-17T21:52:53.052Z,13.00
2022-09-17T21:53:57.038Z,13.00
2022-09-17T21:54:58.658Z,13.00
2022-09-17T21:56:12.021Z,13.10
2022-09-17T21:57:13.714Z,13.10
2022-09-17T21:58:15.363Z,13.10
2022-09-17T21:59:17.439Z,13.10
2022-09-17T22:00:23.223Z,13.10
2022-09-17T22:01:39.543Z,13.10
2022-09-17T22:02:41.739Z,13.00
2022-09-17T22:03:44.296Z,13.00
2022-09-17T22:04:45.907Z,13.00
2022-09-17T22:05:47.579Z,13.00
2022-09-17T22:06:50.110Z,12.90
2022-09-17T22:07:51.796Z,13.00
2022-09-17T22:08:54.603Z,13.00
2022-09-17T22:09:56.227Z,13.00
2022-09-17T22:11:10.988Z,13.00
2022-09-17T22:12:12.627Z,12.90
2022-09-17T22:13:14.313Z,12.90
2022-09-17T22:14:19.434Z,12.90
2022-09-17T22:15:21.247Z,12.90
2022-09-17T22:16:26.234Z,12.80
2022-09-17T22:17:27.946Z,12.80
2022-09-17T22:18:29.971Z,12.80
2022-09-17T22:19:31.642Z,12.80
2022-09-17T22:20:33.354Z,12.70
2022-09-17T22:21:37.864Z,12.70
2022-09-17T22:22:39.495Z,12.70
2022-09-17T22:23:41.366Z,12.70
2022-09-17T22:24:44.385Z,12.70
2022-09-17T22:25:47.223Z,12.70
2022-09-17T22:26:56.583Z,12.70
2022-09-17T22:28:20.138Z,12.70
2022-09-17T22:29:24.199Z,12.70
2022-09-17T22:30:26.141Z,12.70
2022-09-17T22:31:27.916Z,12.60
2022-09-17T22:32:29.667Z,12.60
2022-09-17T22:33:33.928Z,12.60
2022-09-17T22:34:36.423Z,12.60
2022-09-17T22:35:38.063Z,12.60
2022-09-17T22:36:40.136Z,12.60
2022-09-17T22:37:41.847Z,12.60
2022-09-17T22:38:50.886Z,12.50
2022-09-17T22:39:52.617Z,12.60
2022-09-17T22:40:54.608Z,12.60
2022-09-17T22:41:57.542Z,12.60
2022-09-17T22:42:59.169Z,12.50
2022-09-17T22:44:03.433Z,12.50
2022-09-17T22:45:07.271Z,12.50
2022-09-17T22:46:18.386Z,12.50
2022-09-17T22:47:20.052Z,12.50
2022-09-17T22:48:21.718Z,12.50
2022-09-17T22:49:23.569Z,12.40
2022-09-17T22:50:25.233Z,12.40
2022-09-17T22:51:28.695Z,12.40
2022-09-17T22:52:30.976Z,12.40
2022-09-17T22:53:33.097Z,12.40
2022-09-17T22:54:35.931Z,12.40
2022-09-17T22:55:38.037Z,12.40
2022-09-17T22:56:40.479Z,12.50
2022-09-17T22:57:42.157Z,12.40
2022-09-17T22:58:44.330Z,12.40
2022-09-17T22:59:46.904Z,12.40
2022-09-17T23:00:48.606Z,12.40
2022-09-17T23:01:50.246Z,12.40
2022-09-17T23:02:52.450Z,12.50
2022-09-17T23:03:54.478Z,12.40
2022-09-17T23:04:57.827Z,12.40
2022-09-17T23:06:00.994Z,12.40
2022-09-17T23:07:03.637Z,12.40
2022-09-17T23:08:05.262Z,12.40
2022-09-17T23:09:07.683Z,12.50
2022-09-17T23:10:09.491Z,12.50
2022-09-17T23:11:26.625Z,12.50
2022-09-17T23:12:28.259Z,12.50
2022-09-17T23:13:30.066Z,12.50
2022-09-17T23:14:31.955Z,12.50
2022-09-17T23:15:35.049Z,12.60
2022-09-17T23:16:39.686Z,12.60
2022-09-17T23:17:42.587Z,12.50
2022-09-17T23:18:44.693Z,12.50
2022-09-17T23:19:48.811Z,12.50
2022-09-17T23:21:00.511Z,12.50
2022-09-17T23:22:02.161Z,12.60
2022-09-17T23:23:04.419Z,12.50
2022-09-17T23:24:06.811Z,12.60
2022-09-17T23:25:08.840Z,12.60
2022-09-17T23:26:14.921Z,12.60
2022-09-17T23:27:16.781Z,12.60
2022-09-17T23:28:18.414Z,12.60
2022-09-17T23:29:20.274Z,12.60
2022-09-17T23:30:23.638Z,12.60
2022-09-17T23:31:28.034Z,12.60
2022-09-17T23:32:32.343Z,12.60
2022-09-17T23:33:36.594Z,12.60
2022-09-17T23:34:40.804Z,12.70
2022-09-17T23:35:42.435Z,12.70
2022-09-17T23:36:44.312Z,12.70
2022-09-17T23:37:46.213Z,12.70
2022-09-17T23:38:48.515Z,12.80
2022-09-17T23:39:50.354Z,12.80
2022-09-17T23:40:51.979Z,12.70
2022-09-17T23:41:53.613Z,12.90
2022-09-17T23:42:56.434Z,12.80
2022-09-17T23:44:00.173Z,12.80
2022-09-17T23:45:02.287Z,12.90
2022-09-17T23:46:05.441Z,12.90
2022-09-17T23:47:07.336Z,12.80
2022-09-17T23:48:08.954Z,12.90
2022-09-17T23:49:11.825Z,12.80
2022-09-17T23:50:13.592Z,12.90
2022-09-17T23:51:16.502Z,12.90
2022-09-17T23:52:18.127Z,12.90
2022-09-17T23:53:19.741Z,12.90
2022-09-17T23:54:21.402Z,12.90
2022-09-17T23:55:22.999Z,12.90
2022-09-17T23:56:26.770Z,12.90
2022-09-17T23:57:29.066Z,12.90
2022-09-17T23:58:34.128Z,12.90
2022-09-17T23:59:36.384Z,12.80
